sensor_id;sensor_type;location;lat;lon;timestamp;P1;durP1;ratioP1;P2;durP2;ratioP2
36205;SDS011;22242;48.796;9.930;2023-12-20T00:00:56;1.20;;;1.08;;
36205;SDS011;22242;48.796;9.930;2023-12-20T00:03:23;1.52;;;1.05;;
36205;SDS011;22242;48.796;9.930;2023-12-20T00:05:51;1.20;;;1.10;;
36205;SDS011;22242;48.796;9.930;2023-12-20T00:08:18;1.35;;;0.82;;
36205;SDS011;22242;48.796;9.930;2023-12-20T00:10:45;1.00;;;0.90;;
36205;SDS011;22242;48.796;9.930;2023-12-20T00:13:11;0.90;;;0.90;;
36205;SDS011;22242;48.796;9.930;2023-12-20T00:15:38;1.00;;;0.90;;
36205;SDS011;22242;48.796;9.930;2023-12-20T00:18:05;0.65;;;0.63;;
36205;SDS011;22242;48.796;9.930;2023-12-20T00:20:32;0.75;;;0.75;;
36205;SDS011;22242;48.796;9.930;2023-12-20T00:23:00;1.27;;;0.95;;
36205;SDS011;22242;48.796;9.930;2023-12-20T00:25:28;0.90;;;0.82;;
36205;SDS011;22242;48.796;9.930;2023-12-20T00:27:54;1.00;;;0.90;;
36205;SDS011;22242;48.796;9.930;2023-12-20T00:30:21;0.88;;;0.80;;
36205;SDS011;22242;48.796;9.930;2023-12-20T00:32:48;0.90;;;0.70;;
36205;SDS011;22242;48.796;9.930;2023-12-20T00:35:15;0.70;;;0.52;;
36205;SDS011;22242;48.796;9.930;2023-12-20T00:37:42;0.73;;;0.65;;
36205;SDS011;22242;48.796;9.930;2023-12-20T00:40:14;0.73;;;0.70;;
36205;SDS011;22242;48.796;9.930;2023-12-20T00:42:41;0.95;;;0.88;;
36205;SDS011;22242;48.796;9.930;2023-12-20T00:45:08;0.90;;;0.70;;
36205;SDS011;22242;48.796;9.930;2023-12-20T00:47:35;1.08;;;0.60;;
36205;SDS011;22242;48.796;9.930;2023-12-20T00:50:02;0.93;;;0.73;;
36205;SDS011;22242;48.796;9.930;2023-12-20T00:52:29;0.90;;;0.68;;
36205;SDS011;22242;48.796;9.930;2023-12-20T00:54:55;0.73;;;0.73;;
36205;SDS011;22242;48.796;9.930;2023-12-20T00:57:24;0.93;;;0.88;;
36205;SDS011;22242;48.796;9.930;2023-12-20T00:59:50;1.05;;;0.60;;
36205;SDS011;22242;48.796;9.930;2023-12-20T01:02:17;0.63;;;0.60;;
36205;SDS011;22242;48.796;9.930;2023-12-20T01:04:44;1.10;;;1.02;;
36205;SDS011;22242;48.796;9.930;2023-12-20T01:07:11;1.42;;;1.00;;
36205;SDS011;22242;48.796;9.930;2023-12-20T01:09:38;1.10;;;1.00;;
36205;SDS011;22242;48.796;9.930;2023-12-20T01:12:05;1.73;;;0.90;;
36205;SDS011;22242;48.796;9.930;2023-12-20T01:14:33;1.00;;;0.77;;
36205;SDS011;22242;48.796;9.930;2023-12-20T01:17:00;4.00;;;0.80;;
36205;SDS011;22242;48.796;9.930;2023-12-20T01:19:27;1.15;;;0.98;;
36205;SDS011;22242;48.796;9.930;2023-12-20T01:21:54;3.38;;;1.42;;
36205;SDS011;22242;48.796;9.930;2023-12-20T01:24:21;1.17;;;0.95;;
36205;SDS011;22242;48.796;9.930;2023-12-20T01:26:48;3.80;;;1.20;;
36205;SDS011;22242;48.796;9.930;2023-12-20T01:29:15;1.83;;;1.38;;
36205;SDS011;22242;48.796;9.930;2023-12-20T01:31:43;2.30;;;1.30;;
36205;SDS011;22242;48.796;9.930;2023-12-20T01:34:10;2.63;;;1.50;;
36205;SDS011;22242;48.796;9.930;2023-12-20T01:36:37;3.00;;;1.73;;
36205;SDS011;22242;48.796;9.930;2023-12-20T01:39:03;1.50;;;1.15;;
36205;SDS011;22242;48.796;9.930;2023-12-20T01:41:30;0.95;;;0.93;;
36205;SDS011;22242;48.796;9.930;2023-12-20T01:43:57;3.15;;;1.55;;
36205;SDS011;22242;48.796;9.930;2023-12-20T01:46:24;2.60;;;1.50;;
36205;SDS011;22242;48.796;9.930;2023-12-20T01:48:53;2.30;;;1.05;;
36205;SDS011;22242;48.796;9.930;2023-12-20T01:51:20;2.03;;;1.80;;
36205;SDS011;22242;48.796;9.930;2023-12-20T01:53:47;1.92;;;1.40;;
36205;SDS011;22242;48.796;9.930;2023-12-20T01:56:15;2.83;;;1.50;;
36205;SDS011;22242;48.796;9.930;2023-12-20T01:58:43;1.50;;;1.15;;
36205;SDS011;22242;48.796;9.930;2023-12-20T02:01:11;2.00;;;1.40;;
36205;SDS011;22242;48.796;9.930;2023-12-20T02:03:38;1.65;;;1.20;;
36205;SDS011;22242;48.796;9.930;2023-12-20T02:06:08;1.48;;;1.33;;
36205;SDS011;22242;48.796;9.930;2023-12-20T02:08:35;4.60;;;1.70;;
36205;SDS011;22242;48.796;9.930;2023-12-20T02:11:02;4.25;;;1.42;;
36205;SDS011;22242;48.796;9.930;2023-12-20T02:13:30;1.70;;;1.20;;
36205;SDS011;22242;48.796;9.930;2023-12-20T02:15:57;1.58;;;1.27;;
36205;SDS011;22242;48.796;9.930;2023-12-20T02:18:24;1.52;;;1.30;;
36205;SDS011;22242;48.796;9.930;2023-12-20T02:20:51;2.72;;;1.05;;
36205;SDS011;22242;48.796;9.930;2023-12-20T02:23:20;2.22;;;1.23;;
36205;SDS011;22242;48.796;9.930;2023-12-20T02:25:46;2.03;;;1.13;;
36205;SDS011;22242;48.796;9.930;2023-12-20T02:28:13;2.45;;;1.00;;
36205;SDS011;22242;48.796;9.930;2023-12-20T02:30:41;2.20;;;0.95;;
36205;SDS011;22242;48.796;9.930;2023-12-20T02:33:08;0.93;;;0.93;;
36205;SDS011;22242;48.796;9.930;2023-12-20T02:35:39;1.30;;;0.90;;
36205;SDS011;22242;48.796;9.930;2023-12-20T02:38:05;1.23;;;1.00;;
36205;SDS011;22242;48.796;9.930;2023-12-20T02:40:33;1.33;;;0.90;;
36205;SDS011;22242;48.796;9.930;2023-12-20T02:43:00;1.10;;;1.02;;
36205;SDS011;22242;48.796;9.930;2023-12-20T02:45:27;1.02;;;0.77;;
36205;SDS011;22242;48.796;9.930;2023-12-20T02:47:54;0.90;;;0.90;;
36205;SDS011;22242;48.796;9.930;2023-12-20T02:50:21;1.95;;;0.80;;
36205;SDS011;22242;48.796;9.930;2023-12-20T02:52:48;3.97;;;0.98;;
36205;SDS011;22242;48.796;9.930;2023-12-20T02:55:15;2.10;;;0.95;;
36205;SDS011;22242;48.796;9.930;2023-12-20T02:57:43;1.02;;;0.93;;
36205;SDS011;22242;48.796;9.930;2023-12-20T03:00:10;0.80;;;0.75;;
36205;SDS011;22242;48.796;9.930;2023-12-20T03:02:37;1.08;;;0.70;;
36205;SDS011;22242;48.796;9.930;2023-12-20T03:05:04;2.17;;;0.80;;
36205;SDS011;22242;48.796;9.930;2023-12-20T03:07:31;1.25;;;0.88;;
36205;SDS011;22242;48.796;9.930;2023-12-20T03:09:58;3.72;;;1.02;;
36205;SDS011;22242;48.796;9.930;2023-12-20T03:12:25;1.33;;;1.23;;
36205;SDS011;22242;48.796;9.930;2023-12-20T03:14:53;1.25;;;0.95;;
36205;SDS011;22242;48.796;9.930;2023-12-20T03:17:21;1.10;;;0.90;;
36205;SDS011;22242;48.796;9.930;2023-12-20T03:19:48;0.88;;;0.88;;
36205;SDS011;22242;48.796;9.930;2023-12-20T03:22:14;2.15;;;1.17;;
36205;SDS011;22242;48.796;9.930;2023-12-20T03:24:41;1.25;;;1.15;;
36205;SDS011;22242;48.796;9.930;2023-12-20T03:27:08;1.05;;;0.95;;
36205;SDS011;22242;48.796;9.930;2023-12-20T03:29:35;1.25;;;1.15;;
36205;SDS011;22242;48.796;9.930;2023-12-20T03:32:03;0.88;;;0.88;;
36205;SDS011;22242;48.796;9.930;2023-12-20T03:34:30;1.13;;;1.05;;
36205;SDS011;22242;48.796;9.930;2023-12-20T03:36:57;1.38;;;1.27;;
36205;SDS011;22242;48.796;9.930;2023-12-20T03:39:24;1.00;;;1.00;;
36205;SDS011;22242;48.796;9.930;2023-12-20T03:41:50;1.30;;;1.20;;
36205;SDS011;22242;48.796;9.930;2023-12-20T03:44:17;4.13;;;1.45;;
36205;SDS011;22242;48.796;9.930;2023-12-20T03:46:44;2.65;;;1.40;;
36205;SDS011;22242;48.796;9.930;2023-12-20T03:49:12;1.98;;;1.30;;
36205;SDS011;22242;48.796;9.930;2023-12-20T03:51:39;1.42;;;1.33;;
36205;SDS011;22242;48.796;9.930;2023-12-20T03:54:07;1.75;;;1.20;;
36205;SDS011;22242;48.796;9.930;2023-12-20T03:56:33;1.25;;;1.10;;
36205;SDS011;22242;48.796;9.930;2023-12-20T03:59:00;1.88;;;1.02;;
36205;SDS011;22242;48.796;9.930;2023-12-20T04:01:27;1.40;;;1.30;;
36205;SDS011;22242;48.796;9.930;2023-12-20T04:03:54;1.92;;;1.30;;
36205;SDS011;22242;48.796;9.930;2023-12-20T04:06:21;1.20;;;1.10;;
36205;SDS011;22242;48.796;9.930;2023-12-20T04:08:48;0.90;;;0.90;;
36205;SDS011;22242;48.796;9.930;2023-12-20T04:11:14;1.13;;;1.05;;
36205;SDS011;22242;48.796;9.930;2023-12-20T04:13:41;0.70;;;0.70;;
36205;SDS011;22242;48.796;9.930;2023-12-20T04:16:08;1.35;;;0.90;;
36205;SDS011;22242;48.796;9.930;2023-12-20T04:18:35;1.15;;;0.68;;
36205;SDS011;22242;48.796;9.930;2023-12-20T04:21:02;0.82;;;0.77;;
36205;SDS011;22242;48.796;9.930;2023-12-20T04:23:30;0.68;;;0.40;;
36205;SDS011;22242;48.796;9.930;2023-12-20T04:25:57;0.80;;;0.50;;
36205;SDS011;22242;48.796;9.930;2023-12-20T04:28:24;2.00;;;0.55;;
36205;SDS011;22242;48.796;9.930;2023-12-20T04:30:50;0.63;;;0.63;;
36205;SDS011;22242;48.796;9.930;2023-12-20T04:33:17;1.65;;;0.50;;
36205;SDS011;22242;48.796;9.930;2023-12-20T04:35:44;1.73;;;0.32;;
36205;SDS011;22242;48.796;9.930;2023-12-20T04:38:11;0.47;;;0.47;;
36205;SDS011;22242;48.796;9.930;2023-12-20T04:40:39;0.85;;;0.30;;
36205;SDS011;22242;48.796;9.930;2023-12-20T04:43:06;0.55;;;0.55;;
36205;SDS011;22242;48.796;9.930;2023-12-20T04:45:33;0.52;;;0.52;;
36205;SDS011;22242;48.796;9.930;2023-12-20T04:48:01;0.70;;;0.70;;
36205;SDS011;22242;48.796;9.930;2023-12-20T04:50:29;1.08;;;0.98;;
36205;SDS011;22242;48.796;9.930;2023-12-20T04:52:56;0.65;;;0.65;;
36205;SDS011;22242;48.796;9.930;2023-12-20T04:55:23;0.77;;;0.60;;
36205;SDS011;22242;48.796;9.930;2023-12-20T04:57:51;0.43;;;0.43;;
36205;SDS011;22242;48.796;9.930;2023-12-20T05:00:18;1.58;;;0.60;;
36205;SDS011;22242;48.796;9.930;2023-12-20T05:02:44;1.75;;;0.60;;
36205;SDS011;22242;48.796;9.930;2023-12-20T05:05:11;1.58;;;0.60;;
36205;SDS011;22242;48.796;9.930;2023-12-20T05:15:47;1.90;;;0.50;;
36205;SDS011;22242;48.796;9.930;2023-12-20T05:18:14;1.17;;;0.52;;
36205;SDS011;22242;48.796;9.930;2023-12-20T05:20:41;0.50;;;0.50;;
36205;SDS011;22242;48.796;9.930;2023-12-20T05:23:07;0.60;;;0.60;;
36205;SDS011;22242;48.796;9.930;2023-12-20T05:25:34;0.63;;;0.45;;
36205;SDS011;22242;48.796;9.930;2023-12-20T05:28:01;0.50;;;0.50;;
36205;SDS011;22242;48.796;9.930;2023-12-20T05:30:28;0.55;;;0.52;;
36205;SDS011;22242;48.796;9.930;2023-12-20T05:32:56;1.13;;;0.82;;
36205;SDS011;22242;48.796;9.930;2023-12-20T05:35:23;1.63;;;0.80;;
36205;SDS011;22242;48.796;9.930;2023-12-20T05:37:50;1.00;;;0.90;;
36205;SDS011;22242;48.796;9.930;2023-12-20T05:40:16;1.63;;;1.10;;
36205;SDS011;22242;48.796;9.930;2023-12-20T05:42:43;0.70;;;0.70;;
36205;SDS011;22242;48.796;9.930;2023-12-20T05:45:10;2.00;;;1.00;;
36205;SDS011;22242;48.796;9.930;2023-12-20T05:47:37;0.50;;;0.50;;
36205;SDS011;22242;48.796;9.930;2023-12-20T05:50:05;1.13;;;0.60;;
36205;SDS011;22242;48.796;9.930;2023-12-20T05:52:34;0.35;;;0.35;;
36205;SDS011;22242;48.796;9.930;2023-12-20T05:55:00;0.70;;;0.57;;
36205;SDS011;22242;48.796;9.930;2023-12-20T05:57:27;1.00;;;0.52;;
36205;SDS011;22242;48.796;9.930;2023-12-20T05:59:54;0.30;;;0.30;;
36205;SDS011;22242;48.796;9.930;2023-12-20T06:02:21;0.40;;;0.35;;
36205;SDS011;22242;48.796;9.930;2023-12-20T06:04:48;0.40;;;0.40;;
36205;SDS011;22242;48.796;9.930;2023-12-20T06:07:16;0.43;;;0.43;;
36205;SDS011;22242;48.796;9.930;2023-12-20T06:09:43;0.47;;;0.47;;
36205;SDS011;22242;48.796;9.930;2023-12-20T06:12:10;0.47;;;0.47;;
36205;SDS011;22242;48.796;9.930;2023-12-20T06:14:36;0.50;;;0.50;;
36205;SDS011;22242;48.796;9.930;2023-12-20T06:17:03;1.90;;;0.60;;
36205;SDS011;22242;48.796;9.930;2023-12-20T06:19:30;0.82;;;0.63;;
36205;SDS011;22242;48.796;9.930;2023-12-20T06:21:57;1.75;;;0.70;;
36205;SDS011;22242;48.796;9.930;2023-12-20T06:24:25;0.60;;;0.60;;
36205;SDS011;22242;48.796;9.930;2023-12-20T06:26:53;0.60;;;0.60;;
36205;SDS011;22242;48.796;9.930;2023-12-20T06:29:20;0.95;;;0.88;;
36205;SDS011;22242;48.796;9.930;2023-12-20T06:31:46;0.80;;;0.80;;
36205;SDS011;22242;48.796;9.930;2023-12-20T06:34:13;0.73;;;0.73;;
36205;SDS011;22242;48.796;9.930;2023-12-20T06:36:40;0.93;;;0.82;;
36205;SDS011;22242;48.796;9.930;2023-12-20T06:39:07;0.70;;;0.70;;
36205;SDS011;22242;48.796;9.930;2023-12-20T06:41:35;0.55;;;0.50;;
36205;SDS011;22242;48.796;9.930;2023-12-20T06:44:02;0.60;;;0.60;;
36205;SDS011;22242;48.796;9.930;2023-12-20T06:46:28;0.60;;;0.60;;
36205;SDS011;22242;48.796;9.930;2023-12-20T06:48:55;1.17;;;0.80;;
36205;SDS011;22242;48.796;9.930;2023-12-20T06:51:22;0.65;;;0.65;;
36205;SDS011;22242;48.796;9.930;2023-12-20T06:53:50;0.60;;;0.60;;
36205;SDS011;22242;48.796;9.930;2023-12-20T06:56:17;0.68;;;0.68;;
36205;SDS011;22242;48.796;9.930;2023-12-20T06:58:45;0.57;;;0.57;;
36205;SDS011;22242;48.796;9.930;2023-12-20T07:01:12;0.65;;;0.65;;
36205;SDS011;22242;48.796;9.930;2023-12-20T07:03:40;0.60;;;0.60;;
36205;SDS011;22242;48.796;9.930;2023-12-20T07:06:06;0.60;;;0.60;;
36205;SDS011;22242;48.796;9.930;2023-12-20T07:08:33;0.90;;;0.60;;
36205;SDS011;22242;48.796;9.930;2023-12-20T07:11:00;0.40;;;0.40;;
36205;SDS011;22242;48.796;9.930;2023-12-20T07:13:27;0.45;;;0.45;;
36205;SDS011;22242;48.796;9.930;2023-12-20T07:15:55;0.40;;;0.40;;
36205;SDS011;22242;48.796;9.930;2023-12-20T07:18:22;0.50;;;0.50;;
36205;SDS011;22242;48.796;9.930;2023-12-20T07:20:48;0.50;;;0.50;;
36205;SDS011;22242;48.796;9.930;2023-12-20T07:23:15;0.60;;;0.60;;
36205;SDS011;22242;48.796;9.930;2023-12-20T07:25:42;0.57;;;0.57;;
36205;SDS011;22242;48.796;9.930;2023-12-20T07:28:09;0.60;;;0.60;;
36205;SDS011;22242;48.796;9.930;2023-12-20T07:30:36;1.50;;;0.80;;
36205;SDS011;22242;48.796;9.930;2023-12-20T07:33:04;0.88;;;0.80;;
36205;SDS011;22242;48.796;9.930;2023-12-20T07:35:33;0.80;;;0.80;;
36205;SDS011;22242;48.796;9.930;2023-12-20T07:38:00;0.60;;;0.60;;
36205;SDS011;22242;48.796;9.930;2023-12-20T07:40:27;0.90;;;0.90;;
36205;SDS011;22242;48.796;9.930;2023-12-20T07:42:54;1.25;;;1.20;;
36205;SDS011;22242;48.796;9.930;2023-12-20T07:45:21;1.30;;;1.20;;
36205;SDS011;22242;48.796;9.930;2023-12-20T07:47:48;1.38;;;1.27;;
36205;SDS011;22242;48.796;9.930;2023-12-20T07:50:16;1.55;;;1.45;;
36205;SDS011;22242;48.796;9.930;2023-12-20T07:52:43;1.52;;;1.42;;
36205;SDS011;22242;48.796;9.930;2023-12-20T07:55:10;1.40;;;1.20;;
36205;SDS011;22242;48.796;9.930;2023-12-20T07:57:37;1.80;;;1.70;;
36205;SDS011;22242;48.796;9.930;2023-12-20T08:00:04;1.77;;;1.67;;
36205;SDS011;22242;48.796;9.930;2023-12-20T08:02:32;2.17;;;2.08;;
36205;SDS011;22242;48.796;9.930;2023-12-20T08:04:59;2.50;;;2.15;;
36205;SDS011;22242;48.796;9.930;2023-12-20T08:07:27;2.88;;;2.67;;
36205;SDS011;22242;48.796;9.930;2023-12-20T08:09:53;3.05;;;2.85;;
36205;SDS011;22242;48.796;9.930;2023-12-20T08:12:22;3.42;;;2.45;;
36205;SDS011;22242;48.796;9.930;2023-12-20T08:14:48;2.85;;;2.63;;
36205;SDS011;22242;48.796;9.930;2023-12-20T08:17:15;3.45;;;3.15;;
36205;SDS011;22242;48.796;9.930;2023-12-20T08:19:44;3.50;;;3.20;;
36205;SDS011;22242;48.796;9.930;2023-12-20T08:22:10;5.28;;;4.40;;
36205;SDS011;22242;48.796;9.930;2023-12-20T08:24:39;3.08;;;2.88;;
36205;SDS011;22242;48.796;9.930;2023-12-20T08:27:06;3.35;;;3.05;;
36205;SDS011;22242;48.796;9.930;2023-12-20T08:29:34;3.03;;;2.83;;
36205;SDS011;22242;48.796;9.930;2023-12-20T08:32:01;3.10;;;2.90;;
36205;SDS011;22242;48.796;9.930;2023-12-20T08:34:28;4.32;;;3.10;;
36205;SDS011;22242;48.796;9.930;2023-12-20T08:36:55;3.25;;;2.95;;
36205;SDS011;22242;48.796;9.930;2023-12-20T08:39:22;3.50;;;3.10;;
36205;SDS011;22242;48.796;9.930;2023-12-20T08:41:50;3.70;;;3.30;;
36205;SDS011;22242;48.796;9.930;2023-12-20T08:44:17;4.03;;;3.63;;
36205;SDS011;22242;48.796;9.930;2023-12-20T08:46:44;4.72;;;3.83;;
36205;SDS011;22242;48.796;9.930;2023-12-20T08:49:10;4.47;;;3.72;;
36205;SDS011;22242;48.796;9.930;2023-12-20T08:51:37;7.90;;;3.80;;
36205;SDS011;22242;48.796;9.930;2023-12-20T08:54:06;6.68;;;4.57;;
36205;SDS011;22242;48.796;9.930;2023-12-20T08:56:33;5.75;;;4.47;;
36205;SDS011;22242;48.796;9.930;2023-12-20T08:59:02;4.88;;;4.00;;
36205;SDS011;22242;48.796;9.930;2023-12-20T09:01:28;5.82;;;4.20;;
36205;SDS011;22242;48.796;9.930;2023-12-20T09:03:55;4.88;;;4.00;;
36205;SDS011;22242;48.796;9.930;2023-12-20T09:06:22;4.25;;;3.67;;
36205;SDS011;22242;48.796;9.930;2023-12-20T09:08:50;6.63;;;3.90;;
36205;SDS011;22242;48.796;9.930;2023-12-20T09:11:17;6.30;;;4.30;;
36205;SDS011;22242;48.796;9.930;2023-12-20T09:13:44;6.80;;;4.35;;
36205;SDS011;22242;48.796;9.930;2023-12-20T09:16:12;6.43;;;4.57;;
36205;SDS011;22242;48.796;9.930;2023-12-20T09:18:41;9.50;;;5.25;;
36205;SDS011;22242;48.796;9.930;2023-12-20T09:21:07;5.28;;;4.13;;
36205;SDS011;22242;48.796;9.930;2023-12-20T09:23:34;5.63;;;4.20;;
36205;SDS011;22242;48.796;9.930;2023-12-20T09:26:02;7.88;;;4.07;;
36205;SDS011;22242;48.796;9.930;2023-12-20T09:28:29;4.25;;;3.63;;
36205;SDS011;22242;48.796;9.930;2023-12-20T09:30:57;5.50;;;3.72;;
36205;SDS011;22242;48.796;9.930;2023-12-20T09:33:25;4.55;;;3.03;;
36205;SDS011;22242;48.796;9.930;2023-12-20T09:35:52;8.38;;;4.03;;
36205;SDS011;22242;48.796;9.930;2023-12-20T09:38:19;4.20;;;3.80;;
36205;SDS011;22242;48.796;9.930;2023-12-20T09:40:46;5.63;;;3.10;;
36205;SDS011;22242;48.796;9.930;2023-12-20T09:43:13;6.82;;;3.50;;
36205;SDS011;22242;48.796;9.930;2023-12-20T09:45:41;6.03;;;2.85;;
36205;SDS011;22242;48.796;9.930;2023-12-20T09:48:11;3.83;;;3.05;;
36205;SDS011;22242;48.796;9.930;2023-12-20T09:50:41;5.18;;;2.90;;
36205;SDS011;22242;48.796;9.930;2023-12-20T09:53:08;6.00;;;3.15;;
36205;SDS011;22242;48.796;9.930;2023-12-20T09:55:38;5.18;;;3.55;;
36205;SDS011;22242;48.796;9.930;2023-12-20T09:58:07;7.63;;;3.80;;
36205;SDS011;22242;48.796;9.930;2023-12-20T10:00:34;5.20;;;3.47;;
36205;SDS011;22242;48.796;9.930;2023-12-20T10:03:01;7.15;;;3.30;;
36205;SDS011;22242;48.796;9.930;2023-12-20T10:05:30;3.33;;;3.00;;
36205;SDS011;22242;48.796;9.930;2023-12-20T10:07:59;4.45;;;2.85;;
36205;SDS011;22242;48.796;9.930;2023-12-20T10:10:27;3.35;;;2.38;;
36205;SDS011;22242;48.796;9.930;2023-12-20T10:13:03;3.20;;;2.45;;
36205;SDS011;22242;48.796;9.930;2023-12-20T10:15:32;3.65;;;2.30;;
36205;SDS011;22242;48.796;9.930;2023-12-20T10:17:59;2.50;;;2.30;;
36205;SDS011;22242;48.796;9.930;2023-12-20T10:20:27;3.80;;;1.83;;
36205;SDS011;22242;48.796;9.930;2023-12-20T10:22:54;5.68;;;2.28;;
36205;SDS011;22242;48.796;9.930;2023-12-20T10:25:23;6.72;;;2.13;;
36205;SDS011;22242;48.796;9.930;2023-12-20T10:28:08;4.40;;;1.88;;
36205;SDS011;22242;48.796;9.930;2023-12-20T10:30:35;2.35;;;1.70;;
36205;SDS011;22242;48.796;9.930;2023-12-20T10:33:02;3.63;;;1.33;;
36205;SDS011;22242;48.796;9.930;2023-12-20T10:35:31;2.38;;;1.80;;
36205;SDS011;22242;48.796;9.930;2023-12-20T10:37:58;2.88;;;1.40;;
36205;SDS011;22242;48.796;9.930;2023-12-20T10:40:30;3.40;;;1.85;;
36205;SDS011;22242;48.796;9.930;2023-12-20T10:43:01;4.68;;;1.58;;
36205;SDS011;22242;48.796;9.930;2023-12-20T10:45:29;3.78;;;1.75;;
36205;SDS011;22242;48.796;9.930;2023-12-20T10:47:56;2.80;;;1.45;;
36205;SDS011;22242;48.796;9.930;2023-12-20T10:50:26;4.25;;;1.95;;
36205;SDS011;22242;48.796;9.930;2023-12-20T10:52:53;3.95;;;2.20;;
36205;SDS011;22242;48.796;9.930;2023-12-20T10:55:21;8.82;;;3.10;;
36205;SDS011;22242;48.796;9.930;2023-12-20T10:57:50;1.73;;;1.50;;
36205;SDS011;22242;48.796;9.930;2023-12-20T11:00:18;5.57;;;1.83;;
36205;SDS011;22242;48.796;9.930;2023-12-20T11:02:46;5.72;;;2.85;;
36205;SDS011;22242;48.796;9.930;2023-12-20T11:05:19;3.42;;;2.00;;
36205;SDS011;22242;48.796;9.930;2023-12-20T11:07:52;6.53;;;1.90;;
36205;SDS011;22242;48.796;9.930;2023-12-20T11:10:25;3.50;;;1.83;;
36205;SDS011;22242;48.796;9.930;2023-12-20T11:12:58;4.80;;;1.65;;
36205;SDS011;22242;48.796;9.930;2023-12-20T11:15:35;4.68;;;2.08;;
36205;SDS011;22242;48.796;9.930;2023-12-20T11:18:03;4.22;;;1.90;;
36205;SDS011;22242;48.796;9.930;2023-12-20T11:20:35;4.55;;;1.95;;
36205;SDS011;22242;48.796;9.930;2023-12-20T11:23:03;3.70;;;1.48;;
36205;SDS011;22242;48.796;9.930;2023-12-20T11:28:14;5.07;;;1.80;;
36205;SDS011;22242;48.796;9.930;2023-12-20T11:30:46;5.43;;;1.65;;
36205;SDS011;22242;48.796;9.930;2023-12-20T11:33:14;12.30;;;3.30;;
36205;SDS011;22242;48.796;9.930;2023-12-20T11:35:41;5.60;;;1.67;;
36205;SDS011;22242;48.796;9.930;2023-12-20T11:38:08;3.17;;;1.52;;
36205;SDS011;22242;48.796;9.930;2023-12-20T11:40:36;4.60;;;1.63;;
36205;SDS011;22242;48.796;9.930;2023-12-20T11:43:03;2.92;;;1.38;;
36205;SDS011;22242;48.796;9.930;2023-12-20T11:45:31;4.53;;;1.33;;
36205;SDS011;22242;48.796;9.930;2023-12-20T11:48:00;4.57;;;1.30;;
36205;SDS011;22242;48.796;9.930;2023-12-20T11:50:28;8.50;;;1.40;;
36205;SDS011;22242;48.796;9.930;2023-12-20T11:52:56;4.88;;;1.27;;
36205;SDS011;22242;48.796;9.930;2023-12-20T11:55:23;5.30;;;1.20;;
36205;SDS011;22242;48.796;9.930;2023-12-20T11:57:50;5.18;;;1.10;;
36205;SDS011;22242;48.796;9.930;2023-12-20T12:00:17;6.00;;;1.23;;
36205;SDS011;22242;48.796;9.930;2023-12-20T12:02:56;6.22;;;1.60;;
36205;SDS011;22242;48.796;9.930;2023-12-20T12:05:23;5.20;;;1.15;;
36205;SDS011;22242;48.796;9.930;2023-12-20T12:07:50;3.42;;;0.88;;
36205;SDS011;22242;48.796;9.930;2023-12-20T12:10:18;3.50;;;1.27;;
36205;SDS011;22242;48.796;9.930;2023-12-20T12:12:45;6.22;;;1.17;;
36205;SDS011;22242;48.796;9.930;2023-12-20T12:15:12;2.42;;;1.00;;
36205;SDS011;22242;48.796;9.930;2023-12-20T12:17:40;3.72;;;1.00;;
36205;SDS011;22242;48.796;9.930;2023-12-20T12:20:09;5.20;;;1.20;;
36205;SDS011;22242;48.796;9.930;2023-12-20T12:22:36;3.90;;;1.00;;
36205;SDS011;22242;48.796;9.930;2023-12-20T12:25:09;2.13;;;0.70;;
36205;SDS011;22242;48.796;9.930;2023-12-20T12:27:38;7.00;;;1.05;;
36205;SDS011;22242;48.796;9.930;2023-12-20T12:30:06;4.90;;;1.35;;
36205;SDS011;22242;48.796;9.930;2023-12-20T12:32:34;3.00;;;1.05;;
36205;SDS011;22242;48.796;9.930;2023-12-20T12:35:02;4.05;;;1.00;;
36205;SDS011;22242;48.796;9.930;2023-12-20T12:37:33;7.82;;;1.48;;
36205;SDS011;22242;48.796;9.930;2023-12-20T12:40:00;10.60;;;4.40;;
36205;SDS011;22242;48.796;9.930;2023-12-20T12:42:28;5.55;;;1.13;;
36205;SDS011;22242;48.796;9.930;2023-12-20T12:44:55;4.68;;;1.00;;
36205;SDS011;22242;48.796;9.930;2023-12-20T12:47:21;4.90;;;1.40;;
36205;SDS011;22242;48.796;9.930;2023-12-20T12:49:49;7.35;;;1.60;;
36205;SDS011;22242;48.796;9.930;2023-12-20T12:52:17;4.85;;;1.45;;
36205;SDS011;22242;48.796;9.930;2023-12-20T12:54:46;9.55;;;1.50;;
36205;SDS011;22242;48.796;9.930;2023-12-20T12:57:13;2.65;;;1.10;;
36205;SDS011;22242;48.796;9.930;2023-12-20T12:59:41;6.30;;;1.50;;
36205;SDS011;22242;48.796;9.930;2023-12-20T13:02:07;5.80;;;1.60;;
36205;SDS011;22242;48.796;9.930;2023-12-20T13:04:34;4.10;;;1.40;;
36205;SDS011;22242;48.796;9.930;2023-12-20T13:07:01;4.07;;;1.85;;
36205;SDS011;22242;48.796;9.930;2023-12-20T13:09:28;4.53;;;1.70;;
36205;SDS011;22242;48.796;9.930;2023-12-20T13:11:56;3.03;;;1.30;;
36205;SDS011;22242;48.796;9.930;2023-12-20T13:14:24;4.45;;;1.23;;
36205;SDS011;22242;48.796;9.930;2023-12-20T13:16:50;3.90;;;2.15;;
36205;SDS011;22242;48.796;9.930;2023-12-20T13:19:17;1.92;;;1.00;;
36205;SDS011;22242;48.796;9.930;2023-12-20T13:21:44;8.65;;;1.40;;
36205;SDS011;22242;48.796;9.930;2023-12-20T13:24:11;5.22;;;1.05;;
36205;SDS011;22242;48.796;9.930;2023-12-20T13:26:37;5.05;;;1.55;;
36205;SDS011;22242;48.796;9.930;2023-12-20T13:29:06;4.28;;;1.30;;
36205;SDS011;22242;48.796;9.930;2023-12-20T13:31:33;6.53;;;1.67;;
36205;SDS011;22242;48.796;9.930;2023-12-20T13:34:01;4.88;;;1.20;;
36205;SDS011;22242;48.796;9.930;2023-12-20T13:36:28;7.00;;;1.08;;
36205;SDS011;22242;48.796;9.930;2023-12-20T13:38:55;6.72;;;1.40;;
36205;SDS011;22242;48.796;9.930;2023-12-20T13:41:22;3.25;;;1.45;;
36205;SDS011;22242;48.796;9.930;2023-12-20T13:43:49;3.40;;;1.10;;
36205;SDS011;22242;48.796;9.930;2023-12-20T13:46:17;2.60;;;1.40;;
36205;SDS011;22242;48.796;9.930;2023-12-20T13:48:44;3.25;;;1.23;;
36205;SDS011;22242;48.796;9.930;2023-12-20T13:51:11;3.25;;;1.20;;
36205;SDS011;22242;48.796;9.930;2023-12-20T13:53:37;3.63;;;0.90;;
36205;SDS011;22242;48.796;9.930;2023-12-20T13:56:04;1.13;;;0.70;;
36205;SDS011;22242;48.796;9.930;2023-12-20T13:58:32;4.35;;;1.10;;
36205;SDS011;22242;48.796;9.930;2023-12-20T14:00:58;5.20;;;1.30;;
36205;SDS011;22242;48.796;9.930;2023-12-20T14:03:26;4.38;;;1.60;;
36205;SDS011;22242;48.796;9.930;2023-12-20T14:05:53;3.58;;;1.30;;
36205;SDS011;22242;48.796;9.930;2023-12-20T14:08:21;6.80;;;1.30;;
36205;SDS011;22242;48.796;9.930;2023-12-20T14:10:48;8.80;;;1.33;;
36205;SDS011;22242;48.796;9.930;2023-12-20T14:13:15;5.68;;;1.30;;
36205;SDS011;22242;48.796;9.930;2023-12-20T14:15:42;5.43;;;1.48;;
36205;SDS011;22242;48.796;9.930;2023-12-20T14:18:10;9.90;;;2.13;;
36205;SDS011;22242;48.796;9.930;2023-12-20T14:20:39;2.33;;;1.20;;
36205;SDS011;22242;48.796;9.930;2023-12-20T14:23:07;5.13;;;1.60;;
36205;SDS011;22242;48.796;9.930;2023-12-20T14:25:35;3.22;;;1.63;;
36205;SDS011;22242;48.796;9.930;2023-12-20T14:28:03;4.63;;;1.98;;
36205;SDS011;22242;48.796;9.930;2023-12-20T14:30:30;5.63;;;1.42;;
36205;SDS011;22242;48.796;9.930;2023-12-20T14:32:57;3.70;;;1.30;;
36205;SDS011;22242;48.796;9.930;2023-12-20T14:35:24;7.07;;;1.92;;
36205;SDS011;22242;48.796;9.930;2023-12-20T14:37:52;4.72;;;1.50;;
36205;SDS011;22242;48.796;9.930;2023-12-20T14:40:19;13.20;;;2.65;;
36205;SDS011;22242;48.796;9.930;2023-12-20T14:42:46;7.38;;;1.75;;
36205;SDS011;22242;48.796;9.930;2023-12-20T14:45:14;4.97;;;1.50;;
36205;SDS011;22242;48.796;9.930;2023-12-20T14:47:41;4.85;;;1.50;;
36205;SDS011;22242;48.796;9.930;2023-12-20T14:50:08;6.57;;;1.30;;
36205;SDS011;22242;48.796;9.930;2023-12-20T14:52:37;5.30;;;1.40;;
36205;SDS011;22242;48.796;9.930;2023-12-20T14:55:05;8.68;;;1.90;;
36205;SDS011;22242;48.796;9.930;2023-12-20T14:57:32;6.43;;;1.63;;
36205;SDS011;22242;48.796;9.930;2023-12-20T14:59:59;5.25;;;1.67;;